• Join FlightAware (Why Join?)
  • Login
  • US Flag 
10:01PM EDT


 

Airport Tracker/Info


-or-


 

Live Flight TrackerFlight Track Log ✈ FLG4099 ✈ 07-May-2013 ✈ KBTV - KDTW

Flight Track Log - Related Links

Times and Time Zones

All times are in EDT time to prevent confusion due to time zone crossing. See the FLG4099 flight status page for this flight to view local times or setup timezone preferences in your user account.

Time Position Orientation Groundspeed Altitude Reporting Facility
EDT Latitude Longitude Course Direction KTS MPH feet Rate Location/Type
06:14AM 44.3964 -73.5617 253° West  Level FlightAware Approximate
06:14AM 44.3872 -73.3231 259° West 269 310 9,000  Level Boston Center
06:15AM 44.3673 -73.6970 253° West  Level FlightAware Approximate
06:15AM 44.3694 -73.4478 259° West 291 335 10,900  Level Boston Center
06:16AM 44.3474 -73.8355 259° West  Level FlightAware Approximate
06:16AM 44.3514 -73.5811 259° West 335 386 12,300  Level Boston Center
06:17AM 44.3260 -73.9735 256° West  Level FlightAware Approximate
06:17AM 44.3292 -73.7228 258° West 367 422 13,800  Level Boston Center
06:18AM 44.3008 -74.1103 256° West  Level FlightAware Approximate
06:18AM 44.3089 -73.8531 258° West 380 437 15,000  Level Boston Center
06:19AM 44.2755 -74.2469 256° West  Level FlightAware Approximate
06:19AM 44.2861 -74.0003 258° West 386 444 16,500  Level Boston Center
06:20AM 44.2500 -74.3834 259° West  Level FlightAware Approximate
06:20AM 44.2608 -74.1619 258° West 396 456 17,800  Level Boston Center
06:21AM 44.2397 -74.3178 259° West 401 461 18,500 840 Climbing Boston Center
06:22AM 44.2142 -74.4736 257° West 411 473 19,500 960 Climbing Boston Center
06:23AM 44.1883 -74.6347 257° West 418 481 20,500 960 Climbing Boston Center
06:24AM 44.1644 -74.7931 258° West 418 481 21,500 780 Climbing Boston Center
06:25AM 44.1381 -74.9511 257° West 423 487 22,100 540 Climbing Boston Center
06:26AM 44.1136 -75.1122 258° West 428 493 22,600 480 Climbing Boston Center
06:27AM 44.0867 -75.2814 258° West 439 505 23,100 720 Climbing Boston Center
06:28AM 44.0644 -75.4133 257° West 439 505 24,100 780 Climbing Boston Center
06:29AM 44.0322 -75.6053 257° West 439 505 24,700 540 Climbing Boston Center
06:30AM 44.0067 -75.7714 258° West 439 505 25,200 480 Climbing Boston Center
06:31AM 43.9789 -75.9372 257° West 444 511 25,700 480 Climbing Boston Center
06:32AM 43.9528 -76.1031 258° West 444 511 26,200 480 Climbing Boston Center
06:33AM 43.9494 -76.2703 268° West 444 511 26,700 480 Climbing Boston Center
06:34AM 43.9400 -76.4253 265° West 444 511 27,200 480 Climbing Boston Center
06:35AM 43.9297 -76.5978 265° West 444 511 27,700 540 Climbing Boston Center
06:36AM 43.9167 -76.6667 255° West 440 506 28,000 540 Climbing Toronto Center
06:37AM 43.9000 -76.8333 262° West 440 506 28,500 480 Climbing Toronto Center
06:38AM 43.8833 -77.0000 262° West 450 518 29,000 480 Climbing Toronto Center
06:39AM 43.8667 -77.1833 263° West 440 506 29,500 480 Climbing Toronto Center
06:40AM 43.8500 -77.3500 262° West 440 506 30,000 240 Climbing Toronto Center
06:41AM 43.8500 -77.5000 270° West 450 518 30,000  Level Toronto Center
06:42AM 43.8333 -77.6833 263° West 450 518 30,000  Level Toronto Center
06:43AM 43.8167 -77.8833 263° West 460 529 30,000  Level Toronto Center
06:44AM 43.8000 -78.0333 261° West 460 529 30,000  Level Toronto Center
06:45AM 43.7667 -78.2167 256° West 460 529 30,000  Level Toronto Center
06:46AM 43.7500 -78.3833 262° West 460 529 30,000  Level Toronto Center
06:47AM 43.7500 -78.5667 270° West 460 529 30,000  Level Toronto Center
06:48AM 43.7333 -78.7500 263° West 460 529 30,000  Level Toronto Center
06:49AM 43.7167 -78.9167 262° West 470 541 30,000  Level Toronto Center
06:50AM 43.7000 -79.1000 263° West 470 541 30,000  Level Toronto Center
06:51AM 43.6833 -79.2833 263° West 470 541 30,000  Level Toronto Center
06:52AM 43.6667 -79.4500 262° West 460 529 30,000  Level Toronto Center
06:53AM 43.6333 -79.6333 256° West 470 541 30,000  Level Toronto Center
06:54AM 43.5333 -79.7500 220° Southwest 470 541 30,000  Level Toronto Center
06:55AM 43.4500 -79.8833 229° Southwest 460 529 30,000  Level Toronto Center
06:56AM 43.3500 -80.0000 220° Southwest 460 529 30,000 -120 Level Toronto Center
06:57AM 43.2667 -80.1333 229° Southwest 460 529 29,800 -960 Descending Toronto Center
06:58AM 43.1667 -80.2500 220° Southwest 470 541 28,100 -1,680 Descending Toronto Center
06:59AM 43.0833 -80.3833 229° Southwest 460 529 26,500 -1,680 Descending Toronto Center
07:00AM 42.9833 -80.5000 220° Southwest 460 529 24,800 -1,740 Descending Toronto Center
07:01AM 42.9000 -80.6333 230° Southwest 460 529 23,100 -1,140 Descending Toronto Center
07:01AM 42.8414 -80.7164 226° Southwest 462 532 23,000 -120 Descending Cleveland Center
07:02AM 42.7581 -80.8208 223° Southwest 457 526 23,000  Level Cleveland Center
07:03AM 42.6950 -80.9644 239° Southwest 455 524 23,000  Level Cleveland Center
07:04AM 42.6778 -81.1367 262° West 454 522 23,000  Level Cleveland Center
07:05AM 42.6581 -81.3117 261° West 469 540 23,000  Level Cleveland Center
07:06AM 42.6381 -81.4836 261° West 466 536 23,000  Level Cleveland Center
07:07AM 42.6178 -81.6525 261° West 461 531 23,000 -540 Level Cleveland Center
07:08AM 42.5975 -81.8100 260° West 426 490 22,000 -1,560 Descending Cleveland Center
07:09AM 42.5939 -81.9397 268° West 384 442 19,900 -2,100 Descending Cleveland Center
07:10AM 42.6258 -82.0589 290° West 346 398 17,900 -1,920 Descending Cleveland Center
07:11AM 42.6556 -82.1725 290° West 335 386 16,100 -1,500 Descending Cleveland Center
07:12AM 42.6439 -82.2542 259° West 316 364 15,300 -1,140 Descending Cleveland Center
07:12AM 42.6289 -82.2792 231° Southwest 308 354 15,000 -1,140 Descending Cleveland Center
07:13AM 42.6008 -82.3489 241° Southwest 311 358 14,300 -1,140 Descending Cleveland Center
07:13AM 42.5836 -82.3794 233° Southwest 297 342 13,900 -1,140 Descending Cleveland Center
07:14AM 42.5578 -82.4350 238° Southwest 303 349 13,300 -1,140 Descending Cleveland Center
07:14AM 42.5406 -82.4769 241° Southwest 297 342 12,800 -1,200 Descending Cleveland Center
07:15AM 42.5100 -82.5464 239° Southwest 297 342 12,000 -840 Descending Cleveland Center
07:15AM 42.4972 -82.5742 238° Southwest 303 349 12,000 -540 Level Cleveland Center
07:16AM 42.4708 -82.6522 245° Southwest 312 359 11,500 -1,020 Descending Cleveland Center
07:16AM 42.4600 -82.6772 240° Southwest 308 354 11,000 -1,620 Descending Cleveland Center
07:17AM 42.4336 -82.7522 245° Southwest 306 352 9,900 -1,500 Descending Cleveland Center
07:17AM 42.4247 -82.7800 247° West 308 354 9,500 -1,500 Descending Cleveland Center
07:18AM 42.4086 -82.8553 254° West 294 338 8,400 -1,620 Descending Cleveland Center
07:18AM 42.4081 -82.8836 268° West 296 341 7,900 -1,200 Descending Cleveland Center
07:19AM 42.4064 -82.9622 268° West 275 316 7,200 -900 Descending Cleveland Center
07:19AM 42.4039 -82.9875 262° West 283 326 7,000 -720 Descending Cleveland Center
07:20AM 42.4022 -83.0547 268° West 218 251 6,500 -1,020 Descending Cleveland Center
07:21AM 42.3900 -83.1386 259° West 217 250 5,200 -900 Descending Cleveland Center
07:22AM 42.3614 -83.2078 241° Southwest 191 220 4,700 -900 Descending Cleveland Center
07:23AM 42.3269 -83.2569 227° Southwest 173 199 3,400 -1,200 Descending Cleveland Center
07:24AM 42.2867 -83.2833 206° Southwest 139 160 2,300 -1,140 Descending Cleveland Center